Time;durP1;ratioP1;P1;durP2;ratioP2;P2;SDS_P1;SDS_P2;PMS_P1;PMS_P2;Temp;Humidity;BMP_temperature;BMP_pressure;BME280_temperature;BME280_humidity;BME280_pressure;Samples;Min_cycle;Max_cycle;Signal;HPM_P1;HPM_P2
2022/09/02 00:01:22;;;;;;;;;18.40;18.40;;;;;21.16;64.91;99190.84;5129396;27;8934;-77
2022/09/02 00:03:53;;;;;;;;;17.20;16.00;;;;;21.08;65.68;99182.38;5128748;27;8941;-77
2022/09/02 00:06:22;;;;;;;;;18.60;15.00;;;;;21.22;65.44;99191.38;5129180;27;9412;-78
2022/09/02 00:08:50;;;;;;;;;15.00;15.00;;;;;21.60;64.29;99188.59;5129888;27;8888;-78
2022/09/02 00:11:22;;;;;;;;;15.80;15.00;;;;;21.52;63.88;99176.66;5131977;27;8854;-77
2022/09/02 00:13:51;;;;;;;;;11.00;11.00;;;;;21.26;64.62;99184.13;5123052;27;8911;-77
2022/09/02 00:16:23;;;;;;;;;13.80;12.00;;;;;21.13;65.38;99177.72;5108164;28;8964;-76
2022/09/02 00:18:53;;;;;;;;;11.60;11.60;;;;;21.26;64.95;99186.78;5115838;27;8850;-80
2022/09/02 00:21:21;;;;;;;;;8.60;8.60;;;;;20.96;66.43;99175.91;5129770;27;8973;-76
2022/09/02 00:23:50;;;;;;;;;8.60;8.60;;;;;20.77;66.79;99178.59;5130204;27;8854;-80
2022/09/02 00:26:19;;;;;;;;;8.00;8.00;;;;;20.98;65.69;99176.69;5139080;27;8854;-76
2022/09/02 00:28:48;;;;;;;;;11.00;11.00;;;;;21.34;64.73;99176.66;5120693;27;8854;-78
2022/09/02 00:31:26;;;;;;;;;10.00;10.00;;;;;21.38;64.77;99175.56;5128844;27;8925;-78
2022/09/02 00:33:55;;;;;;;;;11.60;11.00;;;;;21.10;65.30;99175.22;5127995;27;8862;-78
2022/09/02 00:36:24;;;;;;;;;10.00;10.00;;;;;21.06;65.22;99178.94;5130242;27;8851;-78
2022/09/02 00:38:53;;;;;;;;;11.80;9.40;;;;;21.07;66.08;99175.38;5093155;27;8834;-78
2022/09/02 00:41:24;;;;;;;;;11.40;9.80;;;;;21.06;65.64;99173.66;5141567;27;8931;-77
2022/09/02 00:43:56;;;;;;;;;12.20;9.60;;;;;21.25;65.68;99181.53;5131354;27;8890;-80
2022/09/02 00:46:29;;;;;;;;;13.20;10.40;;;;;20.72;66.86;99178.81;5113148;27;8879;-79
2022/09/02 00:49:04;;;;;;;;;10.00;10.00;;;;;20.49;68.77;99169.31;5150226;27;8831;-78
2022/09/02 00:51:37;;;;;;;;;13.20;12.20;;;;;20.07;70.35;99165.03;5130543;27;8863;-75
2022/09/02 00:54:07;;;;;;;;;14.60;14.00;;;;;20.44;70.07;99173.94;5132288;27;8835;-78
2022/09/02 00:56:38;;;;;;;;;14.20;14.20;;;;;20.77;69.64;99178.59;5081855;28;8873;-79
2022/09/02 00:59:08;;;;;;;;;13.40;12.80;;;;;21.11;68.36;99188.38;5068360;28;9729;-77
2022/09/02 01:01:38;;;;;;;;;13.00;12.40;;;;;21.05;68.06;99188.69;5034941;28;8858;-78
2022/09/02 01:04:07;;;;;;;;;11.80;10.80;;;;;21.43;67.03;99180.63;5084746;28;8865;-78
2022/09/02 01:06:35;;;;;;;;;13.00;13.00;;;;;20.48;68.67;99179.97;5051759;28;8849;-78
2022/09/02 01:09:12;;;;;;;;;10.60;10.20;;;;;20.13;70.19;99178.03;5082308;28;8853;-78
2022/09/02 01:11:42;;;;;;;;;12.20;12.20;;;;;20.00;70.99;99185.66;5078104;28;8861;-79
2022/09/02 01:14:12;;;;;;;;;9.80;9.80;;;;;20.20;70.25;99183.88;5088948;28;8922;-77
2022/09/02 01:16:45;;;;;;;;;8.00;8.00;;;;;20.37;69.33;99186.59;5083983;28;8830;-78
2022/09/02 01:19:22;;;;;;;;;11.40;10.80;;;;;20.41;69.34;99182.88;5036349;28;8845;-79
2022/09/02 01:21:54;;;;;;;;;11.20;10.20;;;;;20.52;68.81;99171.78;5086640;28;8849;-81
2022/09/02 01:24:28;;;;;;;;;9.40;9.20;;;;;20.34;69.42;99172.63;5078624;28;8848;-79
2022/09/02 01:26:58;;;;;;;;;12.40;12.40;;;;;20.20;69.82;99179.44;5094808;27;8855;-78
2022/09/02 01:29:28;;;;;;;;;14.00;13.60;;;;;20.51;69.21;99182.44;5122507;27;8855;-79
2022/09/02 01:31:57;;;;;;;;;14.80;14.20;;;;;20.69;68.57;99181.59;5093663;27;8968;-78
2022/09/02 01:34:26;;;;;;;;;12.40;11.80;;;;;20.66;68.20;99183.53;5065136;28;8855;-79
2022/09/02 01:36:56;;;;;;;;;13.20;13.00;;;;;20.13;69.84;99180.66;5048438;28;8859;-77
2022/09/02 01:39:25;;;;;;;;;13.60;13.60;;;;;20.39;69.29;99174.13;5065048;28;8879;-78
2022/09/02 01:41:54;;;;;;;;;15.80;12.00;;;;;19.93;70.76;99168.31;5077398;28;8985;-78
2022/09/02 01:44:26;;;;;;;;;15.20;14.80;;;;;19.51;72.23;99174.56;5051714;28;8861;-79
2022/09/02 01:46:55;;;;;;;;;15.20;15.20;;;;;19.41;73.45;99160.00;5086014;28;8872;-79
2022/09/02 01:49:24;;;;;;;;;14.60;14.00;;;;;19.41;73.20;99168.81;5065925;28;8888;-69
2022/09/02 01:51:56;;;;;;;;;15.20;14.00;;;;;19.63;72.83;99163.44;5084392;28;8979;-70
2022/09/02 01:54:25;;;;;;;;;16.20;15.20;;;;;19.46;72.83;99165.97;5067592;28;8844;-70
2022/09/02 01:56:54;;;;;;;;;13.20;13.20;;;;;19.34;73.72;99162.06;5069157;28;8947;-69
2022/09/02 01:59:23;;;;;;;;;16.40;15.60;;;;;19.83;72.12;99159.09;5022948;28;8857;-68
2022/09/02 02:01:54;;;;;;;;;16.20;16.20;;;;;19.67;72.44;99166.81;5055011;28;8841;-68
2022/09/02 02:04:23;;;;;;;;;16.80;16.00;;;;;19.88;71.18;99162.38;5005217;28;9618;-69
2022/09/02 02:06:54;;;;;;;;;20.80;18.40;;;;;19.55;72.41;99160.28;5075692;28;8821;-70
2022/09/02 02:09:25;;;;;;;;;17.80;16.00;;;;;19.68;72.44;99164.09;5109593;28;8877;-70
2022/09/02 02:11:54;;;;;;;;;17.00;16.00;;;;;19.61;72.56;99161.78;5106606;28;8828;-71
2022/09/02 02:14:23;;;;;;;;;21.40;19.20;;;;;19.67;72.27;99159.72;5108076;28;8914;-70
2022/09/02 02:16:53;;;;;;;;;15.20;15.20;;;;;19.70;72.34;99160.50;5109409;28;8837;-71
2022/09/02 02:19:21;;;;;;;;;17.80;15.00;;;;;19.59;72.70;99161.00;5110413;28;8975;-69
2022/09/02 02:21:50;;;;;;;;;16.00;16.00;;;;;19.83;71.52;99162.59;5109254;28;8973;-69
2022/09/02 02:24:19;;;;;;;;;13.20;12.40;;;;;20.19;70.32;99161.00;5071521;28;8863;-71
2022/09/02 02:26:49;;;;;;;;;15.60;13.40;;;;;20.44;69.59;99158.91;5090716;28;8852;-70
2022/09/02 02:29:21;;;;;;;;;15.80;15.20;;;;;20.80;68.94;99166.06;5056961;28;8859;-70
2022/09/02 02:31:50;;;;;;;;;16.40;16.40;;;;;20.72;67.94;99162.03;5107909;28;8901;-70
2022/09/02 02:34:19;;;;;;;;;13.80;13.80;;;;;20.78;68.11;99161.78;5090256;28;9798;-71
2022/09/02 02:36:48;;;;;;;;;14.20;14.20;;;;;20.78;68.29;99165.28;5072908;28;8857;-70
2022/09/02 02:39:16;;;;;;;;;10.80;10.80;;;;;20.16;69.30;99155.84;5087943;28;10124;-69
2022/09/02 02:41:46;;;;;;;;;14.60;14.60;;;;;19.97;70.01;99161.97;5026819;28;8997;-71
2022/09/02 02:44:17;;;;;;;;;13.60;13.60;;;;;19.87;70.37;99152.72;5054584;28;8874;-69
2022/09/02 02:46:46;;;;;;;;;13.80;13.80;;;;;19.85;70.64;99155.44;5082338;28;8849;-72
2022/09/02 02:49:15;;;;;;;;;16.40;15.00;;;;;19.63;71.92;99157.28;5091090;28;8935;-71
2022/09/02 02:51:43;;;;;;;;;15.80;15.80;;;;;19.83;70.98;99152.00;5057989;28;8839;-69
2022/09/02 02:54:13;;;;;;;;;15.20;15.00;;;;;20.38;69.69;99155.69;5108238;28;8827;-72
2022/09/02 02:56:42;;;;;;;;;12.60;12.00;;;;;20.09;70.46;99157.88;5090396;28;8969;-70
2022/09/02 02:59:10;;;;;;;;;16.00;15.00;;;;;19.68;71.43;99160.59;5110573;28;8918;-70
2022/09/02 03:01:40;;;;;;;;;14.00;13.60;;;;;20.18;70.67;99156.63;5099918;28;8882;-69
2022/09/02 03:04:09;;;;;;;;;15.40;15.40;;;;;20.21;69.58;99160.00;5088732;28;8853;-70
2022/09/02 03:06:37;;;;;;;;;14.00;13.80;;;;;19.71;71.46;99160.44;5095562;28;8864;-71
2022/09/02 03:09:06;;;;;;;;;12.20;12.20;;;;;19.65;71.52;99156.28;5109786;28;8967;-70
2022/09/02 03:11:37;;;;;;;;;14.00;14.00;;;;;19.94;70.46;99154.16;5075308;28;8861;-70
2022/09/02 03:14:07;;;;;;;;;13.60;13.60;;;;;20.24;69.55;99164.28;5091881;28;9010;-70
2022/09/02 03:16:36;;;;;;;;;13.20;13.20;;;;;20.60;68.89;99156.44;5074118;28;8861;-68
2022/09/02 03:19:06;;;;;;;;;14.60;13.80;;;;;20.48;68.76;99154.31;5108020;28;8861;-70
2022/09/02 03:21:35;;;;;;;;;16.80;16.40;;;;;21.05;67.72;99161.34;5109075;28;8872;-70
2022/09/02 03:24:08;;;;;;;;;51.00;43.50;;;;;21.04;66.67;99160.50;5092080;28;8845;-71
2022/09/02 03:26:41;;;;;;;;;19.40;17.80;;;;;20.92;66.50;99151.31;5090060;28;8912;-68
2022/09/02 03:29:11;;;;;;;;;13.80;13.80;;;;;21.05;66.24;99156.03;5071550;28;8848;-71
2022/09/02 03:31:40;;;;;;;;;15.60;14.60;;;;;21.16;66.20;99161.66;5088145;28;8880;-68
2022/09/02 03:34:10;;;;;;;;;3.00;2.00;;;;;21.38;65.88;99151.69;5087851;28;8837;-70
2022/09/02 03:36:42;;;;;;;;;12.00;12.00;;;;;20.98;65.71;99156.34;5104877;28;8872;-68
2022/09/02 03:39:13;;;;;;;;;13.20;13.20;;;;;20.88;66.83;99159.53;5088135;28;8851;-70
2022/09/02 03:41:44;;;;;;;;;12.00;11.80;;;;;20.64;66.62;99159.75;5048667;28;8963;-70
2022/09/02 03:44:13;;;;;;;;;13.80;13.60;;;;;20.34;68.27;99157.63;5036887;28;8855;-71
2022/09/02 03:46:44;;;;;;;;;13.40;13.40;;;;;20.46;68.55;99148.25;5087805;28;8863;-68
2022/09/02 03:49:14;;;;;;;;;21.00;20.40;;;;;20.28;68.55;99149.09;5087402;28;8996;-70
2022/09/02 03:51:43;;;;;;;;;15.40;15.00;;;;;19.98;69.73;99158.41;5089704;28;8827;-69
2022/09/02 03:54:12;;;;;;;;;11.60;11.60;;;;;20.41;68.58;99147.59;5087779;28;9010;-69
2022/09/02 03:56:42;;;;;;;;;14.00;13.20;;;;;20.52;68.22;99155.88;5104630;28;8863;-69
2022/09/02 03:59:12;;;;;;;;;14.00;14.00;;;;;20.18;68.97;99153.97;5097744;28;8857;-70
2022/09/02 04:01:41;;;;;;;;;14.60;14.60;;;;;20.33;68.22;99161.19;5090863;28;8950;-70
2022/09/02 04:04:10;;;;;;;;;13.80;13.20;;;;;19.74;70.76;99160.34;5107878;28;8929;-71
2022/09/02 04:06:42;;;;;;;;;14.60;14.60;;;;;19.73;70.39;99155.97;5098307;28;8842;-68
2022/09/02 04:09:11;;;;;;;;;16.40;15.40;;;;;19.73;70.23;99158.63;5065497;28;8882;-70
2022/09/02 04:11:42;;;;;;;;;15.20;15.00;;;;;19.44;71.91;99163.38;5066099;28;8844;-70
2022/09/02 04:14:12;;;;;;;;;16.00;15.40;;;;;19.33;72.16;99165.63;5029006;28;8991;-69
2022/09/02 04:16:41;;;;;;;;;24.60;23.60;;;;;19.59;71.34;99163.66;5029237;28;8909;-70
2022/09/02 04:19:10;;;;;;;;;16.40;15.40;;;;;19.69;71.32;99162.31;5045432;28;8944;-69
2022/09/02 04:21:42;;;;;;;;;18.20;18.20;;;;;19.68;70.88;99166.75;5053842;28;8851;-71
2022/09/02 04:24:12;;;;;;;;;19.80;17.00;;;;;19.84;70.53;99176.66;5048612;28;8898;-69
2022/09/02 04:26:45;;;;;;;;;20.20;18.40;;;;;19.62;70.83;99174.06;5047110;28;8863;-69
2022/09/02 04:29:17;;;;;;;;;19.40;18.00;;;;;19.68;71.06;99173.81;5045138;28;8963;-68
2022/09/02 04:31:48;;;;;;;;;15.00;15.00;;;;;19.45;71.79;99174.81;5045354;28;8870;-70
2022/09/02 04:34:17;;;;;;;;;15.80;13.60;;;;;19.09;73.18;99184.25;5044921;28;8862;-72
2022/09/02 04:36:48;;;;;;;;;17.00;17.00;;;;;18.93;73.74;99183.13;5049359;28;8859;-68
2022/09/02 04:39:19;;;;;;;;;18.20;15.40;;;;;18.76;74.65;99185.56;5047638;28;8870;-70
2022/09/02 04:41:49;;;;;;;;;17.40;16.00;;;;;18.72;75.29;99182.19;5080195;28;8977;-70
2022/09/02 04:44:18;;;;;;;;;16.80;15.60;;;;;18.79;74.85;99180.16;5085343;28;8974;-68
2022/09/02 04:46:48;;;;;;;;;21.80;18.60;;;;;18.72;74.58;99192.75;5094082;28;8850;-69
2022/09/02 04:49:20;;;;;;;;;21.80;19.60;;;;;18.87;74.38;99188.69;5125162;27;8859;-71
2022/09/02 04:51:53;;;;;;;;;17.20;17.20;;;;;18.60;75.30;99185.31;5108337;27;8839;-69
2022/09/02 04:54:23;;;;;;;;;21.80;21.80;;;;;18.73;74.42;99198.88;5124751;27;8958;-74
2022/09/02 04:56:54;;;;;;;;;18.40;17.80;;;;;18.63;74.75;99196.59;5108518;27;9739;-71
2022/09/02 04:59:24;;;;;;;;;18.20;18.20;;;;;18.74;73.34;99211.19;5105612;27;8843;-71
2022/09/02 05:02:14;;;;;;;;;16.80;16.80;;;;;18.51;73.43;99205.88;5117936;27;8852;-69
2022/09/02 05:04:43;;;;;;;;;18.80;17.20;;;;;18.63;73.09;99208.97;5086115;27;8874;-71
2022/09/02 05:07:21;;;;;;;;;17.60;16.80;;;;;18.88;72.55;99204.47;5100984;28;9031;-72
2022/09/02 05:09:50;;;;;;;;;16.40;16.40;;;;;18.58;73.30;99209.16;5057652;28;8865;-69
2022/09/02 05:12:19;;;;;;;;;13.40;12.60;;;;;18.46;73.40;99209.59;5108432;28;8988;-72
2022/09/02 05:14:59;;;;;;;;;20.20;16.40;;;;;18.44;73.31;99211.44;5106229;28;8877;-69
2022/09/02 05:17:30;;;;;;;;;10.80;10.80;;;;;18.24;73.57;99205.16;5089310;28;8898;-71
2022/09/02 05:20:00;;;;;;;;;16.80;15.60;;;;;18.08;75.03;99219.81;5102901;28;9053;-71
2022/09/02 05:22:31;;;;;;;;;17.20;14.80;;;;;18.07;74.23;99207.53;5088290;28;8880;-71
2022/09/02 05:25:02;;;;;;;;;17.20;17.00;;;;;18.47;72.56;99217.47;5105419;28;8825;-70
2022/09/02 05:27:32;;;;;;;;;17.00;17.00;;;;;18.41;72.69;99214.19;5050930;28;8868;-69
2022/09/02 05:30:01;;;;;;;;;15.80;15.80;;;;;18.56;72.23;99220.69;5071587;28;9653;-72
2022/09/02 05:32:32;;;;;;;;;12.00;12.00;;;;;18.32;72.72;99215.44;5101146;28;10158;-72
2022/09/02 05:35:06;;;;;;;;;10.60;9.80;;;;;18.24;72.77;99214.84;5100560;28;8883;-69
2022/09/02 05:37:37;;;;;;;;;12.40;12.20;;;;;18.08;73.69;99215.41;5067013;28;8889;-68
2022/09/02 05:40:11;;;;;;;;;14.40;13.80;;;;;18.15;73.96;99221.34;5052063;28;8890;-69
2022/09/02 05:42:43;;;;;;;;;16.40;13.00;;;;;18.18;73.39;99220.34;5106573;28;9682;-68
2022/09/02 05:45:14;;;;;;;;;19.20;18.80;;;;;18.41;72.99;99214.19;5106938;28;8867;-75
2022/09/02 05:47:44;;;;;;;;;18.40;18.40;;;;;18.18;74.34;99217.72;5054475;28;9651;-69
2022/09/02 05:50:13;;;;;;;;;18.00;17.60;;;;;18.47;73.03;99219.28;5073399;28;8830;-70
2022/09/02 05:52:49;;;;;;;;;17.40;17.40;;;;;18.06;74.25;99219.88;5071295;28;8827;-71
2022/09/02 05:55:19;;;;;;;;;22.00;20.80;;;;;18.22;73.71;99212.28;5071606;28;8843;-72
2022/09/02 05:57:49;;;;;;;;;21.60;20.60;;;;;18.06;74.27;99216.38;5071671;28;8974;-71
2022/09/02 06:00:18;;;;;;;;;18.40;18.40;;;;;18.00;74.62;99221.91;5071286;28;9617;-72
2022/09/02 06:02:55;;;;;;;;;13.40;13.40;;;;;18.31;73.71;99218.97;5078623;28;8855;-71
2022/09/02 06:05:29;;;;;;;;;20.00;19.00;;;;;18.05;74.33;99217.28;5070864;28;8865;-69
2022/09/02 06:08:15;;;;;;;;;17.60;17.00;;;;;18.01;74.63;99216.53;5111006;27;9539;-70
2022/09/02 06:10:44;;;;;;;;;18.80;17.20;;;;;18.02;74.36;99220.06;5126310;27;8833;-70
2022/09/02 06:13:20;;;;;;;;;18.60;16.80;;;;;17.79;74.88;99219.06;5126646;27;8879;-71
2022/09/02 06:15:50;;;;;;;;;20.40;17.80;;;;;17.70;74.57;99220.25;5126612;27;8877;-70
2022/09/02 06:18:22;;;;;;;;;19.80;18.60;;;;;17.71;75.23;99227.25;5123831;27;8855;-68
2022/09/02 06:20:54;;;;;;;;;20.80;19.60;;;;;17.60;74.98;99232.03;5126559;27;8850;-73
2022/09/02 06:23:26;;;;;;;;;21.60;21.60;;;;;17.53;75.99;99225.25;5110428;27;8947;-72
2022/09/02 06:25:55;;;;;;;;;18.40;18.00;;;;;17.59;75.38;99234.72;5127726;27;8892;-70
2022/09/02 06:28:23;;;;;;;;;22.20;22.20;;;;;17.74;75.04;99227.13;5112258;27;8884;-74
2022/09/02 06:30:53;;;;;;;;;19.60;18.80;;;;;17.78;74.74;99232.31;5099244;28;8845;-71
2022/09/02 06:33:24;;;;;;;;;22.40;22.40;;;;;17.50;75.22;99236.78;5065731;28;8848;-77
2022/09/02 06:35:53;;;;;;;;;20.80;20.80;;;;;17.47;74.69;99244.78;5058729;28;8867;-80
2022/09/02 06:38:21;;;;;;;;;23.00;21.80;;;;;17.44;74.11;99242.22;5068523;28;8883;-78
2022/09/02 06:40:55;;;;;;;;;21.40;19.00;;;;;17.48;74.42;99245.63;5029571;28;8893;-77
2022/09/02 06:43:40;;;;;;;;;20.80;19.60;;;;;17.25;75.61;99249.03;5045215;28;8871;-78
2022/09/02 06:46:33;;;;;;;;;25.60;22.00;;;;;17.28;75.17;99252.44;5046436;28;8968;-77
2022/09/02 06:49:05;;;;;;;;;15.20;14.40;;;;;17.25;75.34;99249.88;5015871;28;8831;-79
2022/09/02 06:51:36;;;;;;;;;22.00;21.80;;;;;17.18;75.29;99258.03;5050568;28;8952;-76
2022/09/02 06:54:07;;;;;;;;;21.60;20.60;;;;;17.31;75.75;99260.22;5085102;28;8856;-78
2022/09/02 06:56:39;;;;;;;;;17.40;17.00;;;;;17.41;75.56;99270.47;5087782;28;8862;-77
2022/09/02 06:59:09;;;;;;;;;20.20;19.00;;;;;17.33;75.77;99273.34;5075929;28;8938;-78
2022/09/02 07:01:48;;;;;;;;;16.40;16.40;;;;;17.33;75.29;99275.97;5106521;28;8897;-81
2022/09/02 07:07:10;;;;;;;;;19.60;18.40;;;;;17.36;75.30;99275.91;5102244;28;8963;-77
2022/09/02 07:09:45;;;;;;;;;18.60;18.60;;;;;17.23;76.08;99274.56;5088699;28;8822;-76
2022/09/02 07:12:19;;;;;;;;;19.00;19.00;;;;;17.42;75.31;99278.31;5091967;27;9694;-77
2022/09/02 07:14:54;;;;;;;;;21.60;19.60;;;;;17.49;75.48;99277.22;5109913;27;9599;-79
2022/09/02 07:17:28;;;;;;;;;23.40;20.60;;;;;17.37;75.50;99280.22;5110110;27;8862;-78
2022/09/02 07:20:04;;;;;;;;;18.00;17.00;;;;;17.44;75.39;99284.41;5061628;27;8975;-77
2022/09/02 07:22:39;;;;;;;;;17.80;16.80;;;;;17.25;76.28;99289.41;5117906;27;8825;-76
2022/09/02 07:25:10;;;;;;;;;15.00;14.60;;;;;17.42;75.43;99285.38;5108040;27;8847;-79
2022/09/02 07:27:40;;;;;;;;;18.80;17.80;;;;;17.32;76.02;99288.31;5120687;27;8885;-79
2022/09/02 07:30:11;;;;;;;;;19.60;18.40;;;;;17.51;76.10;99293.84;5106345;28;8855;-80
2022/09/02 07:32:41;;;;;;;;;17.20;17.20;;;;;17.46;76.32;99289.63;5031784;28;8877;-77
2022/09/02 07:35:10;;;;;;;;;20.00;19.20;;;;;17.26;76.01;99295.56;5071787;28;8992;-78
2022/09/02 07:37:39;;;;;;;;;16.40;16.40;;;;;17.25;75.41;99302.59;5089861;28;8848;-77
2022/09/02 07:40:11;;;;;;;;;17.60;16.40;;;;;17.38;75.84;99299.56;5035072;28;8881;-77
2022/09/02 07:42:42;;;;;;;;;16.80;16.80;;;;;17.26;75.31;99304.31;5026675;28;8837;-77
2022/09/02 07:45:13;;;;;;;;;19.80;18.20;;;;;17.40;75.14;99303.88;5083632;28;8894;-74
2022/09/02 07:47:47;;;;;;;;;18.40;17.40;;;;;17.37;75.44;99309.22;5052839;28;8924;-77
2022/09/02 07:50:17;;;;;;;;;18.20;16.40;;;;;17.40;74.78;99306.50;5087625;28;10003;-75
2022/09/02 07:52:54;;;;;;;;;19.20;18.20;;;;;17.55;74.62;99305.16;5105349;28;8968;-75
2022/09/02 07:55:23;;;;;;;;;19.40;19.20;;;;;17.34;75.06;99312.84;5088768;28;8858;-75
2022/09/02 07:57:54;;;;;;;;;19.00;19.00;;;;;17.50;75.71;99305.31;5048488;28;9753;-77
2022/09/02 08:00:26;;;;;;;;;17.40;16.40;;;;;17.40;74.89;99310.94;5071520;28;8918;-75
2022/09/02 08:03:00;;;;;;;;;20.20;20.00;;;;;17.28;76.08;99322.72;5055183;28;8845;-78
2022/09/02 08:05:35;;;;;;;;;15.80;15.80;;;;;17.27;75.89;99321.84;5088999;28;8837;-75
2022/09/02 08:08:05;;;;;;;;;18.00;17.80;;;;;17.32;75.61;99319.09;5107616;28;8947;-75
2022/09/02 08:10:34;;;;;;;;;16.20;16.20;;;;;17.30;75.46;99319.13;5109166;28;8882;-75
2022/09/02 08:13:05;;;;;;;;;18.40;17.60;;;;;17.04;76.34;99319.94;5051489;28;8847;-73
2022/09/02 08:15:35;;;;;;;;;19.80;18.00;;;;;17.21;75.72;99316.78;5110534;28;8846;-77
2022/09/02 08:18:04;;;;;;;;;14.40;12.40;;;;;17.06;76.13;99310.22;5106130;28;8859;-74
2022/09/02 08:20:33;;;;;;;;;19.40;19.40;;;;;17.31;74.82;99310.28;5103310;28;8842;-78
2022/09/02 08:23:05;;;;;;;;;17.00;17.00;;;;;17.42;74.49;99317.00;5105938;28;8861;-75
2022/09/02 08:25:45;;;;;;;;;15.80;15.80;;;;;17.31;75.38;99315.56;5107759;28;8995;-74
2022/09/02 08:28:15;;;;;;;;;19.20;19.20;;;;;17.33;74.52;99323.44;5073990;28;8946;-77
2022/09/02 08:30:44;;;;;;;;;19.40;18.00;;;;;17.43;74.88;99311.69;5097544;28;8843;-77
2022/09/02 08:33:13;;;;;;;;;19.20;18.60;;;;;17.56;74.23;99314.81;5086600;28;8856;-76
2022/09/02 08:35:42;;;;;;;;;19.00;18.60;;;;;17.44;74.33;99312.53;5101259;28;8877;-78
2022/09/02 08:38:10;;;;;;;;;20.00;18.80;;;;;17.50;74.52;99305.31;5107153;28;9612;-77
2022/09/02 08:40:41;;;;;;;;;26.20;22.80;;;;;17.62;74.68;99319.00;5118907;27;8843;-75
2022/09/02 08:43:28;;;;;;;;;25.60;23.80;;;;;17.69;74.04;99321.38;5152477;27;8839;-76
2022/09/02 08:46:01;;;;;;;;;24.00;22.60;;;;;17.72;74.62;99317.78;5107819;27;8842;-77
2022/09/02 08:48:37;;;;;;;;;21.80;20.20;;;;;17.59;74.60;99316.47;5126835;27;8859;-76
2022/09/02 08:51:10;;;;;;;;;23.80;22.80;;;;;17.66;74.86;99316.22;5109770;27;9523;-77
2022/09/02 08:53:51;;;;;;;;;23.20;23.20;;;;;17.67;75.20;99317.91;5110899;27;8844;-76
2022/09/02 08:56:20;;;;;;;;;25.20;24.00;;;;;17.65;74.44;99310.97;5130629;27;9644;-78
2022/09/02 08:58:52;;;;;;;;;25.20;23.20;;;;;17.92;75.10;99312.72;5078684;27;8893;-77
2022/09/02 09:01:33;;;;;;;;;28.80;26.40;;;;;18.08;73.69;99312.19;5148631;27;8823;-79
2022/09/02 09:04:11;;;;;;;;;22.40;20.20;;;;;18.16;73.75;99307.50;5130585;27;8911;-78
2022/09/02 09:06:53;;;;;;;;;20.60;20.40;;;;;18.19;73.12;99315.31;5144183;27;8835;-79
2022/09/02 09:09:31;;;;;;;;;24.80;24.60;;;;;18.17;73.26;99318.94;5124095;27;8860;-80
2022/09/02 09:12:10;;;;;;;;;24.60;22.80;;;;;17.82;74.68;99313.91;5135930;27;8849;-78
2022/09/02 09:14:53;;;;;;;;;21.40;19.80;;;;;17.91;73.71;99318.03;5112261;27;8942;-78
2022/09/02 09:17:28;;;;;;;;;15.20;15.20;;;;;17.85;74.54;99324.41;5076161;27;8869;-80
2022/09/02 09:20:01;;;;;;;;;23.40;22.80;;;;;18.05;74.24;99325.47;5149844;27;8982;-78
2022/09/02 09:22:36;;;;;;;;;19.40;18.00;;;;;18.06;74.05;99327.22;5114326;27;8937;-81
2022/09/02 09:25:10;;;;;;;;;14.40;13.00;;;;;18.15;74.14;99329.53;5128741;27;8862;-77
2022/09/02 09:27:38;;;;;;;;;19.80;19.20;;;;;17.87;74.63;99329.63;5128507;27;8833;-78
2022/09/02 09:30:12;;;;;;;;;26.40;24.00;;;;;17.97;75.22;99323.09;5109953;27;8869;-77
2022/09/02 09:32:46;;;;;;;;;23.20;22.40;;;;;18.17;74.41;99317.16;5092487;27;8898;-77
2022/09/02 09:35:16;;;;;;;;;23.20;23.00;;;;;18.34;74.02;99315.69;5128274;27;8845;-76
2022/09/02 09:37:47;;;;;;;;;25.80;24.60;;;;;18.31;73.82;99317.50;5091360;27;8961;-77
2022/09/02 09:40:31;;;;;;;;;23.40;21.80;;;;;18.33;73.91;99322.72;5096075;27;8871;-77
2022/09/02 09:43:13;;;;;;;;;26.40;25.20;;;;;18.55;73.73;99320.19;5096906;27;8836;-76
2022/09/02 09:45:45;;;;;;;;;22.60;22.00;;;;;18.23;74.31;99324.84;5134295;27;8937;-77
2022/09/02 09:48:22;;;;;;;;;22.60;21.60;;;;;18.10;74.55;99327.03;5140114;27;10844;-80
2022/09/02 09:51:13;;;;;;;;;21.80;20.80;;;;;18.36;74.55;99325.28;5110592;27;8935;-77
2022/09/02 09:53:42;;;;;;;;;26.00;23.80;;;;;18.62;73.29;99323.44;5127598;27;8822;-76
2022/09/02 09:56:26;;;;;;;;;27.60;25.60;;;;;18.86;72.81;99321.69;5113500;27;8839;-76
2022/09/02 09:58:55;;;;;;;;;19.40;19.40;;;;;18.54;73.23;99329.00;5128355;27;8889;-77
2022/09/02 10:01:29;;;;;;;;;22.80;22.00;;;;;18.73;73.30;99315.13;5130460;27;8891;-78
2022/09/02 10:04:02;;;;;;;;;20.80;20.80;;;;;18.67;73.39;99314.41;5111970;27;8947;-80
2022/09/02 10:06:39;;;;;;;;;19.00;17.60;;;;;19.19;72.15;99314.25;5148852;27;8871;-77
2022/09/02 10:09:32;;;;;;;;;23.40;21.20;;;;;18.89;73.00;99324.22;5113262;27;8870;-77
2022/09/02 10:12:03;;;;;;;;;21.40;19.60;;;;;18.93;72.45;99322.34;5127202;27;8970;-79
2022/09/02 10:14:36;;;;;;;;;18.80;18.00;;;;;18.73;72.97;99313.34;5112694;27;8859;-76
2022/09/02 10:17:26;;;;;;;;;20.60;18.80;;;;;19.28;71.11;99319.16;5130613;27;8873;-77
2022/09/02 10:20:03;;;;;;;;;19.60;19.60;;;;;18.82;72.81;99314.81;5042745;28;8860;-76
2022/09/02 10:22:53;;;;;;;;;22.80;22.80;;;;;19.11;72.12;99315.47;5044843;28;8922;-78
2022/09/02 10:25:39;;;;;;;;;20.40;19.20;;;;;19.34;70.93;99325.13;5032282;28;9561;-79
2022/09/02 10:28:18;;;;;;;;;19.40;19.00;;;;;19.25;70.60;99321.91;5031284;28;8863;-82
2022/09/02 10:31:00;;;;;;;;;19.60;19.60;;;;;19.46;70.20;99327.28;5044552;28;8920;-77
2022/09/02 10:33:40;;;;;;;;;29.20;26.60;;;;;19.81;69.77;99317.94;5030575;28;8848;-76
2022/09/02 10:36:18;;;;;;;;;23.80;22.40;;;;;20.50;68.14;99315.84;5055981;28;8855;-79
2022/09/02 10:38:52;;;;;;;;;23.20;21.00;;;;;20.29;67.29;99315.00;5050616;28;8852;-78
2022/09/02 10:41:44;;;;;;;;;21.00;21.00;;;;;20.17;67.29;99321.69;5048774;28;8867;-76
2022/09/02 10:44:28;;;;;;;;;23.00;22.60;;;;;20.47;67.34;99316.81;4979973;28;8986;-78
2022/09/02 10:47:01;;;;;;;;;25.40;23.20;;;;;20.52;67.64;99313.97;5044982;28;8850;-77
2022/09/02 10:49:43;;;;;;;;;27.40;26.40;;;;;20.08;68.24;99320.31;5015365;28;8855;-81
2022/09/02 10:52:27;;;;;;;;;20.80;19.60;;;;;19.65;69.22;99319.44;5000190;28;8847;-78
2022/09/02 10:55:05;;;;;;;;;26.40;23.80;;;;;19.75;69.24;99322.59;5047653;28;9006;-76
2022/09/02 10:57:44;;;;;;;;;26.00;25.00;;;;;20.14;67.79;99329.78;5111169;27;8892;-79
2022/09/02 11:00:16;;;;;;;;;31.00;29.80;;;;;20.13;68.34;99328.03;5115841;27;8847;-82
2022/09/02 11:02:51;;;;;;;;;28.40;27.20;;;;;19.95;69.10;99333.22;5117485;27;9576;-81
2022/09/02 11:05:25;;;;;;;;;28.40;26.80;;;;;19.86;70.06;99323.00;5132245;27;8879;-84
2022/09/02 11:08:01;;;;;;;;;26.00;26.00;;;;;20.19;67.78;99328.66;5115640;27;8828;-80
2022/09/02 11:10:36;;;;;;;;;31.60;29.60;;;;;20.25;68.41;99324.88;5131789;27;8827;-78
2022/09/02 11:13:09;;;;;;;;;29.20;29.00;;;;;20.09;69.38;99329.97;5097414;27;8863;-80
2022/09/02 11:15:48;;;;;;;;;28.80;27.20;;;;;19.67;70.44;99328.19;5115157;27;8847;-78
2022/09/02 11:18:25;;;;;;;;;36.00;31.80;;;;;19.65;70.67;99327.38;5133644;27;8839;-81
2022/09/02 11:21:05;;;;;;;;;42.80;35.60;;;;;19.66;71.19;99321.19;5112609;27;8882;-78
2022/09/02 11:23:41;;;;;;;;;29.80;28.60;;;;;19.59;70.62;99323.22;5131082;27;8901;-79
2022/09/02 11:26:17;;;;;;;;;32.00;29.00;;;;;19.97;70.16;99318.13;5081822;27;8951;-78
2022/09/02 11:28:56;;;;;;;;;32.80;29.80;;;;;19.99;70.18;99321.56;5092193;28;9091;-80
2022/09/02 11:31:34;;;;;;;;;32.80;28.60;;;;;19.88;69.96;99320.31;5073642;28;8847;-76
2022/09/02 11:34:18;;;;;;;;;25.60;25.60;;;;;20.36;68.41;99319.09;5081904;28;8832;-79
2022/09/02 11:36:49;;;;;;;;;30.20;27.00;;;;;20.41;67.81;99320.59;5094629;28;8838;-77
2022/09/02 11:39:24;;;;;;;;;35.00;33.40;;;;;20.24;68.44;99317.84;5084126;28;8874;-78
2022/09/02 11:42:50;;;;;;;;;29.60;26.20;;;;;20.11;67.93;99324.59;5052120;28;8849;-78
2022/09/02 11:45:46;;;;;;;;;20.40;20.00;;;;;19.50;70.08;99328.03;5075879;28;8855;-78
2022/09/02 11:48:47;;;;;;;;;26.80;24.40;;;;;18.97;72.01;99326.56;5053338;28;8898;-82
2022/09/02 11:51:52;;;;;;;;;32.20;29.80;;;;;18.96;73.11;99325.72;5007096;28;8872;-77
2022/09/02 11:54:25;;;;;;;;;31.00;30.00;;;;;19.36;71.44;99318.00;4999429;28;8966;-78
2022/09/02 11:57:00;;;;;;;;;31.00;30.40;;;;;19.27;71.40;99327.16;4990586;28;8921;-77